sensor_id;sensor_type;location;lat;lon;timestamp;temperature;humidity
34640;DHT22;22600;48.186;11.526;2023-02-28T00:00:14;21.70;53.50
34640;DHT22;22600;48.186;11.526;2023-02-28T00:02:41;21.50;53.40
34640;DHT22;22600;48.186;11.526;2023-02-28T00:05:08;21.50;52.90
34640;DHT22;22600;48.186;11.526;2023-02-28T00:07:35;21.50;53.00
34640;DHT22;22600;48.186;11.526;2023-02-28T00:12:27;21.50;53.00
34640;DHT22;22600;48.186;11.526;2023-02-28T00:14:53;21.50;53.00
34640;DHT22;22600;48.186;11.526;2023-02-28T00:17:19;21.50;53.40
34640;DHT22;22600;48.186;11.526;2023-02-28T00:19:48;21.50;53.50
34640;DHT22;22600;48.186;11.526;2023-02-28T00:22:19;21.50;54.00
34640;DHT22;22600;48.186;11.526;2023-02-28T00:24:45;21.50;53.50
34640;DHT22;22600;48.186;11.526;2023-02-28T00:27:11;21.40;54.00
34640;DHT22;22600;48.186;11.526;2023-02-28T00:29:37;21.50;53.60
34640;DHT22;22600;48.186;11.526;2023-02-28T00:32:04;21.40;53.50
34640;DHT22;22600;48.186;11.526;2023-02-28T00:34:29;21.40;53.50
34640;DHT22;22600;48.186;11.526;2023-02-28T00:36:55;21.40;54.00
34640;DHT22;22600;48.186;11.526;2023-02-28T00:39:21;21.40;54.20
34640;DHT22;22600;48.186;11.526;2023-02-28T00:41:46;21.50;54.00
34640;DHT22;22600;48.186;11.526;2023-02-28T00:44:12;19.10;53.30
34640;DHT22;22600;48.186;11.526;2023-02-28T00:46:38;21.50;54.50
34640;DHT22;22600;48.186;11.526;2023-02-28T00:49:03;21.40;53.80
34640;DHT22;22600;48.186;11.526;2023-02-28T00:51:29;21.50;54.30
34640;DHT22;22600;48.186;11.526;2023-02-28T00:53:54;21.50;54.00
34640;DHT22;22600;48.186;11.526;2023-02-28T00:56:20;21.40;54.40
34640;DHT22;22600;48.186;11.526;2023-02-28T00:58:46;21.40;54.00
34640;DHT22;22600;48.186;11.526;2023-02-28T01:01:11;21.50;54.10
34640;DHT22;22600;48.186;11.526;2023-02-28T01:03:37;21.50;54.00
34640;DHT22;22600;48.186;11.526;2023-02-28T01:06:03;21.40;54.40
34640;DHT22;22600;48.186;11.526;2023-02-28T01:08:29;21.50;54.50
34640;DHT22;22600;48.186;11.526;2023-02-28T01:10:55;21.50;54.50
34640;DHT22;22600;48.186;11.526;2023-02-28T01:13:20;21.40;53.90
34640;DHT22;22600;48.186;11.526;2023-02-28T01:15:53;21.30;54.00
34640;DHT22;22600;48.186;11.526;2023-02-28T01:18:20;21.50;54.60
34640;DHT22;22600;48.186;11.526;2023-02-28T01:20:46;21.40;54.20
34640;DHT22;22600;48.186;11.526;2023-02-28T01:23:11;21.50;54.30
34640;DHT22;22600;48.186;11.526;2023-02-28T01:25:37;21.40;54.20
34640;DHT22;22600;48.186;11.526;2023-02-28T01:28:04;21.40;54.70
34640;DHT22;22600;48.186;11.526;2023-02-28T01:30:30;21.40;54.00
34640;DHT22;22600;48.186;11.526;2023-02-28T01:32:55;21.40;54.00
34640;DHT22;22600;48.186;11.526;2023-02-28T01:35:21;21.50;54.50
34640;DHT22;22600;48.186;11.526;2023-02-28T01:37:46;21.40;53.90
34640;DHT22;22600;48.186;11.526;2023-02-28T01:40:12;21.40;54.00
34640;DHT22;22600;48.186;11.526;2023-02-28T01:42:38;21.40;54.30
34640;DHT22;22600;48.186;11.526;2023-02-28T01:45:23;21.50;54.40
34640;DHT22;22600;48.186;11.526;2023-02-28T01:47:54;21.40;53.80
34640;DHT22;22600;48.186;11.526;2023-02-28T01:50:24;21.30;54.30
34640;DHT22;22600;48.186;11.526;2023-02-28T01:52:52;21.40;54.20
34640;DHT22;22600;48.186;11.526;2023-02-28T01:55:20;21.40;53.80
34640;DHT22;22600;48.186;11.526;2023-02-28T01:57:52;21.40;53.80
34640;DHT22;22600;48.186;11.526;2023-02-28T02:00:19;21.50;54.40
34640;DHT22;22600;48.186;11.526;2023-02-28T02:02:49;21.40;54.00
34640;DHT22;22600;48.186;11.526;2023-02-28T02:05:19;21.40;54.40
34640;DHT22;22600;48.186;11.526;2023-02-28T02:07:48;21.40;54.20
34640;DHT22;22600;48.186;11.526;2023-02-28T02:10:20;21.40;54.70
34640;DHT22;22600;48.186;11.526;2023-02-28T02:13:00;21.40;54.40
34640;DHT22;22600;48.186;11.526;2023-02-28T02:26:55;21.40;54.60
34640;DHT22;22600;48.186;11.526;2023-02-28T02:35:28;21.40;54.50
34640;DHT22;22600;48.186;11.526;2023-02-28T02:41:19;21.40;55.00
34640;DHT22;22600;48.186;11.526;2023-02-28T02:43:51;21.40;54.30
34640;DHT22;22600;48.186;11.526;2023-02-28T02:46:42;21.40;54.10
34640;DHT22;22600;48.186;11.526;2023-02-28T02:49:13;21.40;54.00
34640;DHT22;22600;48.186;11.526;2023-02-28T02:51:41;21.40;53.90
34640;DHT22;22600;48.186;11.526;2023-02-28T02:54:13;21.40;54.40
34640;DHT22;22600;48.186;11.526;2023-02-28T02:56:42;21.40;54.40
34640;DHT22;22600;48.186;11.526;2023-02-28T02:59:12;21.40;54.10
34640;DHT22;22600;48.186;11.526;2023-02-28T03:01:40;21.40;54.50
34640;DHT22;22600;48.186;11.526;2023-02-28T03:04:13;21.30;53.90
34640;DHT22;22600;48.186;11.526;2023-02-28T03:06:40;21.40;54.40
34640;DHT22;22600;48.186;11.526;2023-02-28T03:09:06;21.40;54.70
34640;DHT22;22600;48.186;11.526;2023-02-28T03:11:32;21.40;54.30
34640;DHT22;22600;48.186;11.526;2023-02-28T03:20:05;21.40;55.10
34640;DHT22;22600;48.186;11.526;2023-02-28T03:31:31;21.40;54.70
34640;DHT22;22600;48.186;11.526;2023-02-28T03:34:06;21.30;55.20
34640;DHT22;22600;48.186;11.526;2023-02-28T03:36:37;21.40;55.30
34640;DHT22;22600;48.186;11.526;2023-02-28T03:39:12;21.40;54.80
34640;DHT22;22600;48.186;11.526;2023-02-28T03:41:44;21.30;54.60
34640;DHT22;22600;48.186;11.526;2023-02-28T03:44:20;21.30;54.40
34640;DHT22;22600;48.186;11.526;2023-02-28T03:47:21;21.30;54.90
34640;DHT22;22600;48.186;11.526;2023-02-28T03:50:23;21.30;54.30
34640;DHT22;22600;48.186;11.526;2023-02-28T03:53:00;21.30;54.20
34640;DHT22;22600;48.186;11.526;2023-02-28T03:55:32;21.30;54.60
34640;DHT22;22600;48.186;11.526;2023-02-28T04:01:09;21.30;54.20
34640;DHT22;22600;48.186;11.526;2023-02-28T04:03:37;21.30;54.60
34640;DHT22;22600;48.186;11.526;2023-02-28T04:06:03;21.30;54.10
34640;DHT22;22600;48.186;11.526;2023-02-28T04:08:29;21.30;54.60
34640;DHT22;22600;48.186;11.526;2023-02-28T04:11:06;21.30;54.30
34640;DHT22;22600;48.186;11.526;2023-02-28T04:13:33;21.30;54.30
34640;DHT22;22600;48.186;11.526;2023-02-28T04:15:59;21.30;54.70
34640;DHT22;22600;48.186;11.526;2023-02-28T04:18:25;21.30;54.80
34640;DHT22;22600;48.186;11.526;2023-02-28T04:20:50;21.30;54.20
34640;DHT22;22600;48.186;11.526;2023-02-28T04:23:16;21.30;54.10
34640;DHT22;22600;48.186;11.526;2023-02-28T04:25:41;21.30;54.20
34640;DHT22;22600;48.186;11.526;2023-02-28T04:28:07;21.30;54.60
34640;DHT22;22600;48.186;11.526;2023-02-28T04:30:32;21.30;54.20
34640;DHT22;22600;48.186;11.526;2023-02-28T04:32:59;21.30;54.20
34640;DHT22;22600;48.186;11.526;2023-02-28T04:35:25;21.30;54.70
34640;DHT22;22600;48.186;11.526;2023-02-28T04:37:50;21.30;54.70
34640;DHT22;22600;48.186;11.526;2023-02-28T04:40:16;21.30;54.30
34640;DHT22;22600;48.186;11.526;2023-02-28T04:42:41;21.30;54.80
34640;DHT22;22600;48.186;11.526;2023-02-28T04:45:08;21.30;54.40
34640;DHT22;22600;48.186;11.526;2023-02-28T04:47:35;21.30;54.30
34640;DHT22;22600;48.186;11.526;2023-02-28T04:50:01;21.30;54.30
34640;DHT22;22600;48.186;11.526;2023-02-28T04:52:27;21.30;54.80
34640;DHT22;22600;48.186;11.526;2023-02-28T04:54:52;21.30;54.70
34640;DHT22;22600;48.186;11.526;2023-02-28T04:57:18;21.30;54.70
34640;DHT22;22600;48.186;11.526;2023-02-28T04:59:44;21.30;54.80
34640;DHT22;22600;48.186;11.526;2023-02-28T05:02:09;21.30;54.90
34640;DHT22;22600;48.186;11.526;2023-02-28T05:04:35;21.30;55.00
34640;DHT22;22600;48.186;11.526;2023-02-28T05:07:01;21.30;55.20
34640;DHT22;22600;48.186;11.526;2023-02-28T05:09:27;21.30;55.00
34640;DHT22;22600;48.186;11.526;2023-02-28T05:11:53;21.30;55.00
34640;DHT22;22600;48.186;11.526;2023-02-28T05:14:19;21.30;55.50
34640;DHT22;22600;48.186;11.526;2023-02-28T05:16:45;21.30;55.00
34640;DHT22;22600;48.186;11.526;2023-02-28T05:19:10;21.30;54.90
34640;DHT22;22600;48.186;11.526;2023-02-28T05:21:41;21.30;55.40
34640;DHT22;22600;48.186;11.526;2023-02-28T05:24:10;21.20;54.70
34640;DHT22;22600;48.186;11.526;2023-02-28T05:26:42;21.30;54.80
34640;DHT22;22600;48.186;11.526;2023-02-28T05:29:09;21.30;54.80
34640;DHT22;22600;48.186;11.526;2023-02-28T05:31:35;21.40;55.30
34640;DHT22;22600;48.186;11.526;2023-02-28T05:34:00;21.30;54.90
34640;DHT22;22600;48.186;11.526;2023-02-28T05:36:26;21.30;55.50
34640;DHT22;22600;48.186;11.526;2023-02-28T05:38:52;21.30;55.30
34640;DHT22;22600;48.186;11.526;2023-02-28T05:41:19;21.30;54.90
34640;DHT22;22600;48.186;11.526;2023-02-28T05:43:45;21.30;55.40
34640;DHT22;22600;48.186;11.526;2023-02-28T05:46:11;21.30;55.40
34640;DHT22;22600;48.186;11.526;2023-02-28T05:48:39;21.30;55.00
34640;DHT22;22600;48.186;11.526;2023-02-28T05:51:06;21.30;55.40
34640;DHT22;22600;48.186;11.526;2023-02-28T05:53:33;21.30;54.90
34640;DHT22;22600;48.186;11.526;2023-02-28T05:55:58;21.30;54.90
34640;DHT22;22600;48.186;11.526;2023-02-28T05:58:24;21.30;55.00
34640;DHT22;22600;48.186;11.526;2023-02-28T06:03:21;21.30;54.80
34640;DHT22;22600;48.186;11.526;2023-02-28T06:05:47;21.30;55.30
34640;DHT22;22600;48.186;11.526;2023-02-28T06:08:12;21.30;55.30
34640;DHT22;22600;48.186;11.526;2023-02-28T06:10:38;21.30;54.80
34640;DHT22;22600;48.186;11.526;2023-02-28T06:13:04;21.30;54.70
34640;DHT22;22600;48.186;11.526;2023-02-28T06:15:30;21.30;54.80
34640;DHT22;22600;48.186;11.526;2023-02-28T06:17:56;21.20;55.20
34640;DHT22;22600;48.186;11.526;2023-02-28T06:20:22;21.30;55.30
34640;DHT22;22600;48.186;11.526;2023-02-28T06:22:48;21.20;55.20
34640;DHT22;22600;48.186;11.526;2023-02-28T06:25:13;21.20;55.70
34640;DHT22;22600;48.186;11.526;2023-02-28T06:27:39;21.30;55.70
34640;DHT22;22600;48.186;11.526;2023-02-28T06:30:05;21.20;55.00
34640;DHT22;22600;48.186;11.526;2023-02-28T06:32:30;21.30;55.60
34640;DHT22;22600;48.186;11.526;2023-02-28T06:34:56;21.30;55.30
34640;DHT22;22600;48.186;11.526;2023-02-28T06:37:23;21.30;55.70
34640;DHT22;22600;48.186;11.526;2023-02-28T06:39:51;21.30;55.90
34640;DHT22;22600;48.186;11.526;2023-02-28T06:42:17;21.30;56.10
34640;DHT22;22600;48.186;11.526;2023-02-28T06:44:42;21.30;55.80
34640;DHT22;22600;48.186;11.526;2023-02-28T06:47:09;21.30;56.20
34640;DHT22;22600;48.186;11.526;2023-02-28T06:49:35;21.30;55.10
34640;DHT22;22600;48.186;11.526;2023-02-28T06:52:01;21.30;53.00
34640;DHT22;22600;48.186;11.526;2023-02-28T06:54:26;22.90;54.20
34640;DHT22;22600;48.186;11.526;2023-02-28T06:56:52;21.30;53.10
34640;DHT22;22600;48.186;11.526;2023-02-28T06:59:20;21.30;52.90
34640;DHT22;22600;48.186;11.526;2023-02-28T07:01:45;21.30;52.20
34640;DHT22;22600;48.186;11.526;2023-02-28T07:04:11;21.30;52.70
34640;DHT22;22600;48.186;11.526;2023-02-28T07:06:38;21.30;52.10
34640;DHT22;22600;48.186;11.526;2023-02-28T07:09:04;21.30;52.60
34640;DHT22;22600;48.186;11.526;2023-02-28T07:11:30;21.30;52.00
34640;DHT22;22600;48.186;11.526;2023-02-28T07:13:56;21.30;51.90
34640;DHT22;22600;48.186;11.526;2023-02-28T07:16:23;21.30;51.90
34640;DHT22;22600;48.186;11.526;2023-02-28T07:18:49;21.30;51.90
34640;DHT22;22600;48.186;11.526;2023-02-28T07:21:15;21.30;52.30
34640;DHT22;22600;48.186;11.526;2023-02-28T07:23:41;21.30;51.80
34640;DHT22;22600;48.186;11.526;2023-02-28T07:26:10;21.30;51.70
34640;DHT22;22600;48.186;11.526;2023-02-28T07:28:36;21.30;51.70
34640;DHT22;22600;48.186;11.526;2023-02-28T07:31:07;21.30;51.70
34640;DHT22;22600;48.186;11.526;2023-02-28T07:33:33;21.30;52.20
34640;DHT22;22600;48.186;11.526;2023-02-28T07:36:17;21.30;51.60
34640;DHT22;22600;48.186;11.526;2023-02-28T07:38:47;21.30;51.60
34640;DHT22;22600;48.186;11.526;2023-02-28T07:41:14;21.30;51.60
34640;DHT22;22600;48.186;11.526;2023-02-28T07:43:40;21.30;51.50
34640;DHT22;22600;48.186;11.526;2023-02-28T07:46:09;21.30;51.60
34640;DHT22;22600;48.186;11.526;2023-02-28T07:48:35;21.30;51.60
34640;DHT22;22600;48.186;11.526;2023-02-28T07:51:01;21.60;52.20
34640;DHT22;22600;48.186;11.526;2023-02-28T07:53:28;21.30;52.10
34640;DHT22;22600;48.186;11.526;2023-02-28T07:55:58;21.30;52.10
34640;DHT22;22600;48.186;11.526;2023-02-28T07:58:24;21.40;52.10
34640;DHT22;22600;48.186;11.526;2023-02-28T08:00:50;21.30;51.80
34640;DHT22;22600;48.186;11.526;2023-02-28T08:03:18;21.30;52.30
34640;DHT22;22600;48.186;11.526;2023-02-28T08:05:44;21.40;52.10
34640;DHT22;22600;48.186;11.526;2023-02-28T08:10:36;21.30;51.30
34640;DHT22;22600;48.186;11.526;2023-02-28T08:13:02;21.40;51.20
34640;DHT22;22600;48.186;11.526;2023-02-28T08:17:53;21.40;51.10
34640;DHT22;22600;48.186;11.526;2023-02-28T08:20:21;21.30;50.90
34640;DHT22;22600;48.186;11.526;2023-02-28T08:22:47;21.40;50.90
34640;DHT22;22600;48.186;11.526;2023-02-28T08:25:13;21.40;51.40
34640;DHT22;22600;48.186;11.526;2023-02-28T08:27:38;21.30;50.70
34640;DHT22;22600;48.186;11.526;2023-02-28T08:30:04;21.30;50.70
34640;DHT22;22600;48.186;11.526;2023-02-28T08:32:32;21.30;51.10
34640;DHT22;22600;48.186;11.526;2023-02-28T08:34:57;21.30;51.10
34640;DHT22;22600;48.186;11.526;2023-02-28T08:37:23;21.30;50.50
34640;DHT22;22600;48.186;11.526;2023-02-28T08:39:49;21.40;50.60
34640;DHT22;22600;48.186;11.526;2023-02-28T08:42:14;21.30;51.00
34640;DHT22;22600;48.186;11.526;2023-02-28T08:44:40;21.30;51.00
34640;DHT22;22600;48.186;11.526;2023-02-28T08:47:06;21.30;51.00
34640;DHT22;22600;48.186;11.526;2023-02-28T08:49:31;21.30;51.00
34640;DHT22;22600;48.186;11.526;2023-02-28T08:51:57;21.30;50.50
34640;DHT22;22600;48.186;11.526;2023-02-28T08:54:23;21.30;50.50
34640;DHT22;22600;48.186;11.526;2023-02-28T08:56:49;21.30;50.40
34640;DHT22;22600;48.186;11.526;2023-02-28T08:59:15;21.30;50.90
34640;DHT22;22600;48.186;11.526;2023-02-28T09:01:40;21.30;50.30
34640;DHT22;22600;48.186;11.526;2023-02-28T09:04:09;21.30;50.80
34640;DHT22;22600;48.186;11.526;2023-02-28T09:06:36;21.30;50.40
34640;DHT22;22600;48.186;11.526;2023-02-28T09:09:02;21.30;50.80
34640;DHT22;22600;48.186;11.526;2023-02-28T09:11:31;21.30;50.30
34640;DHT22;22600;48.186;11.526;2023-02-28T09:13:57;21.30;50.70
34640;DHT22;22600;48.186;11.526;2023-02-28T09:16:24;21.30;50.20
34640;DHT22;22600;48.186;11.526;2023-02-28T09:18:49;21.30;50.20
34640;DHT22;22600;48.186;11.526;2023-02-28T09:21:17;21.30;50.20
34640;DHT22;22600;48.186;11.526;2023-02-28T09:23:44;21.30;50.70
34640;DHT22;22600;48.186;11.526;2023-02-28T09:26:15;21.30;50.70
34640;DHT22;22600;48.186;11.526;2023-02-28T09:28:41;21.30;50.70
34640;DHT22;22600;48.186;11.526;2023-02-28T09:31:12;21.30;50.70
34640;DHT22;22600;48.186;11.526;2023-02-28T09:33:38;21.30;50.70
34640;DHT22;22600;48.186;11.526;2023-02-28T09:36:04;21.30;50.20
34640;DHT22;22600;48.186;11.526;2023-02-28T09:38:29;21.30;50.10
34640;DHT22;22600;48.186;11.526;2023-02-28T09:41:19;21.30;50.70
34640;DHT22;22600;48.186;11.526;2023-02-28T09:43:50;21.30;50.10
34640;DHT22;22600;48.186;11.526;2023-02-28T09:46:38;21.30;50.10
34640;DHT22;22600;48.186;11.526;2023-02-28T09:49:18;21.30;50.10
34640;DHT22;22600;48.186;11.526;2023-02-28T09:52:01;21.30;50.20
34640;DHT22;22600;48.186;11.526;2023-02-28T09:54:30;21.30;50.20
34640;DHT22;22600;48.186;11.526;2023-02-28T09:57:11;21.30;50.70
34640;DHT22;22600;48.186;11.526;2023-02-28T10:02:58;21.30;50.20
34640;DHT22;22600;48.186;11.526;2023-02-28T10:05:38;21.30;50.70
34640;DHT22;22600;48.186;11.526;2023-02-28T10:08:16;21.30;50.30
34640;DHT22;22600;48.186;11.526;2023-02-28T10:10:48;21.30;50.30
34640;DHT22;22600;48.186;11.526;2023-02-28T10:13:21;21.30;50.30
34640;DHT22;22600;48.186;11.526;2023-02-28T10:15:52;21.30;50.30
34640;DHT22;22600;48.186;11.526;2023-02-28T10:18:26;21.30;50.40
34640;DHT22;22600;48.186;11.526;2023-02-28T10:20:53;21.30;50.40
34640;DHT22;22600;48.186;11.526;2023-02-28T10:23:25;21.40;50.50
34640;DHT22;22600;48.186;11.526;2023-02-28T10:26:09;21.30;51.00
34640;DHT22;22600;48.186;11.526;2023-02-28T10:28:36;21.30;50.90
34640;DHT22;22600;48.186;11.526;2023-02-28T10:31:02;21.40;50.50
34640;DHT22;22600;48.186;11.526;2023-02-28T10:33:29;21.40;50.50
34640;DHT22;22600;48.186;11.526;2023-02-28T10:35:55;21.40;50.50
34640;DHT22;22600;48.186;11.526;2023-02-28T10:38:27;21.40;50.50
34640;DHT22;22600;48.186;11.526;2023-02-28T10:41:10;21.40;50.40
34640;DHT22;22600;48.186;11.526;2023-02-28T10:43:37;21.30;50.60
34640;DHT22;22600;48.186;11.526;2023-02-28T10:48:40;21.40;51.10
34640;DHT22;22600;48.186;11.526;2023-02-28T10:51:11;21.40;50.60
34640;DHT22;22600;48.186;11.526;2023-02-28T10:53:47;21.40;50.80
34640;DHT22;22600;48.186;11.526;2023-02-28T10:56:24;21.40;51.40
34640;DHT22;22600;48.186;11.526;2023-02-28T11:01:42;21.40;50.60
34640;DHT22;22600;48.186;11.526;2023-02-28T11:07:22;21.50;50.90
34640;DHT22;22600;48.186;11.526;2023-02-28T11:09:50;21.50;51.00
34640;DHT22;22600;48.186;11.526;2023-02-28T11:12:29;21.50;51.10
34640;DHT22;22600;48.186;11.526;2023-02-28T11:14:58;21.50;51.60
34640;DHT22;22600;48.186;11.526;2023-02-28T11:17:27;21.50;51.10
34640;DHT22;22600;48.186;11.526;2023-02-28T11:19:59;21.50;51.60
34640;DHT22;22600;48.186;11.526;2023-02-28T11:22:31;21.50;51.20
34640;DHT22;22600;48.186;11.526;2023-02-28T11:25:00;21.50;51.20
34640;DHT22;22600;48.186;11.526;2023-02-28T11:29:55;21.50;51.20
34640;DHT22;22600;48.186;11.526;2023-02-28T11:32:23;21.60;51.70
34640;DHT22;22600;48.186;11.526;2023-02-28T11:37:38;21.50;51.60
34640;DHT22;22600;48.186;11.526;2023-02-28T11:40:23;21.50;51.30
34640;DHT22;22600;48.186;11.526;2023-02-28T11:42:57;21.60;51.30
34640;DHT22;22600;48.186;11.526;2023-02-28T11:53:39;21.60;51.40
34640;DHT22;22600;48.186;11.526;2023-02-28T11:56:25;21.70;51.40
34640;DHT22;22600;48.186;11.526;2023-02-28T12:07:30;21.60;52.20
34640;DHT22;22600;48.186;11.526;2023-02-28T12:10:24;21.60;51.90
34640;DHT22;22600;48.186;11.526;2023-02-28T12:13:20;21.50;52.00
34640;DHT22;22600;48.186;11.526;2023-02-28T12:18:42;21.70;52.20
34640;DHT22;22600;48.186;11.526;2023-02-28T12:21:34;21.70;52.70
34640;DHT22;22600;48.186;11.526;2023-02-28T12:26:46;21.70;52.40
34640;DHT22;22600;48.186;11.526;2023-02-28T12:34:36;21.70;53.10
34640;DHT22;22600;48.186;11.526;2023-02-28T12:37:17;21.60;52.70
34640;DHT22;22600;48.186;11.526;2023-02-28T12:39:48;21.70;52.60
34640;DHT22;22600;48.186;11.526;2023-02-28T12:42:29;21.70;52.40
34640;DHT22;22600;48.186;11.526;2023-02-28T12:44:59;21.70;52.90
34640;DHT22;22600;48.186;11.526;2023-02-28T12:47:26;21.70;52.60
34640;DHT22;22600;48.186;11.526;2023-02-28T12:52:33;26.50;55.20
34640;DHT22;22600;48.186;11.526;2023-02-28T12:55:05;21.70;53.20
34640;DHT22;22600;48.186;11.526;2023-02-28T12:57:55;21.80;53.30
34640;DHT22;22600;48.186;11.526;2023-02-28T13:00:25;21.70;52.80
34640;DHT22;22600;48.186;11.526;2023-02-28T13:06:10;21.70;53.40
34640;DHT22;22600;48.186;11.526;2023-02-28T13:11:06;21.70;52.50
34640;DHT22;22600;48.186;11.526;2023-02-28T13:13:32;21.70;51.70
34640;DHT22;22600;48.186;11.526;2023-02-28T13:18:46;21.70;51.60
34640;DHT22;22600;48.186;11.526;2023-02-28T13:21:24;21.80;51.60
34640;DHT22;22600;48.186;11.526;2023-02-28T13:34:32;21.80;51.50
34640;DHT22;22600;48.186;11.526;2023-02-28T13:55:46;21.80;51.90
34640;DHT22;22600;48.186;11.526;2023-02-28T14:07:01;21.90;52.70
34640;DHT22;22600;48.186;11.526;2023-02-28T14:11:57;21.90;51.80
34640;DHT22;22600;48.186;11.526;2023-02-28T14:17:06;21.90;52.10
34640;DHT22;22600;48.186;11.526;2023-02-28T14:19:34;21.80;51.50
34640;DHT22;22600;48.186;11.526;2023-02-28T14:32:35;21.80;52.70
34640;DHT22;22600;48.186;11.526;2023-02-28T14:37:51;21.80;52.90
34640;DHT22;22600;48.186;11.526;2023-02-28T14:40:26;21.80;53.10
34640;DHT22;22600;48.186;11.526;2023-02-28T14:42:57;21.80;53.20
34640;DHT22;22600;48.186;11.526;2023-02-28T14:45:24;21.80;52.90
34640;DHT22;22600;48.186;11.526;2023-02-28T14:47:51;21.80;52.90
34640;DHT22;22600;48.186;11.526;2023-02-28T14:50:20;21.80;53.00
34640;DHT22;22600;48.186;11.526;2023-02-28T14:52:45;21.80;53.00
34640;DHT22;22600;48.186;11.526;2023-02-28T14:55:17;21.80;53.50
34640;DHT22;22600;48.186;11.526;2023-02-28T14:57:58;21.80;53.60
34640;DHT22;22600;48.186;11.526;2023-02-28T15:00:28;21.80;53.70
34640;DHT22;22600;48.186;11.526;2023-02-28T15:02:55;21.80;53.90
34640;DHT22;22600;48.186;11.526;2023-02-28T15:05:33;21.80;54.00
34640;DHT22;22600;48.186;11.526;2023-02-28T15:08:16;21.80;53.60
34640;DHT22;22600;48.186;11.526;2023-02-28T15:10:56;21.80;53.50
34640;DHT22;22600;48.186;11.526;2023-02-28T15:13:23;21.80;54.00
34640;DHT22;22600;48.186;11.526;2023-02-28T15:15:55;21.80;53.90
34640;DHT22;22600;48.186;11.526;2023-02-28T15:18:30;21.80;53.90
34640;DHT22;22600;48.186;11.526;2023-02-28T15:20:59;21.70;53.40
34640;DHT22;22600;48.186;11.526;2023-02-28T15:23:27;21.70;53.50
34640;DHT22;22600;48.186;11.526;2023-02-28T15:25:53;21.70;54.00
34640;DHT22;22600;48.186;11.526;2023-02-28T15:28:21;21.70;53.50
34640;DHT22;22600;48.186;11.526;2023-02-28T15:31:00;21.70;53.90
34640;DHT22;22600;48.186;11.526;2023-02-28T15:33:31;21.70;53.50
34640;DHT22;22600;48.186;11.526;2023-02-28T15:36:14;21.70;54.60
34640;DHT22;22600;48.186;11.526;2023-02-28T15:38:40;21.70;53.60
34640;DHT22;22600;48.186;11.526;2023-02-28T15:41:29;21.70;53.80
34640;DHT22;22600;48.186;11.526;2023-02-28T15:44:17;20.90;53.30
34640;DHT22;22600;48.186;11.526;2023-02-28T15:46:53;21.70;54.20
34640;DHT22;22600;48.186;11.526;2023-02-28T15:49:21;21.70;54.30
34640;DHT22;22600;48.186;11.526;2023-02-28T15:51:48;21.70;54.30
34640;DHT22;22600;48.186;11.526;2023-02-28T15:54:20;21.70;53.90
34640;DHT22;22600;48.186;11.526;2023-02-28T15:56:50;21.70;54.00
34640;DHT22;22600;48.186;11.526;2023-02-28T15:59:23;21.70;54.40
34640;DHT22;22600;48.186;11.526;2023-02-28T16:02:11;21.70;54.50
34640;DHT22;22600;48.186;11.526;2023-02-28T16:04:54;21.70;54.60
34640;DHT22;22600;48.186;11.526;2023-02-28T16:07:20;21.70;54.20
34640;DHT22;22600;48.186;11.526;2023-02-28T16:09:46;21.70;54.70
34640;DHT22;22600;48.186;11.526;2023-02-28T16:12:12;21.80;54.80
34640;DHT22;22600;48.186;11.526;2023-02-28T16:14:39;21.70;54.70
34640;DHT22;22600;48.186;11.526;2023-02-28T16:17:07;21.70;54.60
34640;DHT22;22600;48.186;11.526;2023-02-28T16:19:34;21.70;53.80
34640;DHT22;22600;48.186;11.526;2023-02-28T16:22:00;21.70;53.90
34640;DHT22;22600;48.186;11.526;2023-02-28T16:24:26;21.70;54.00
34640;DHT22;22600;48.186;11.526;2023-02-28T16:26:54;21.80;54.10
34640;DHT22;22600;48.186;11.526;2023-02-28T16:29:35;21.80;54.60
34640;DHT22;22600;48.186;11.526;2023-02-28T16:32:05;21.70;54.20
34640;DHT22;22600;48.186;11.526;2023-02-28T16:34:31;21.80;54.30
34640;DHT22;22600;48.186;11.526;2023-02-28T16:36:57;21.80;54.30
34640;DHT22;22600;48.186;11.526;2023-02-28T16:39:23;21.80;54.40
34640;DHT22;22600;48.186;11.526;2023-02-28T16:41:50;21.80;54.40
34640;DHT22;22600;48.186;11.526;2023-02-28T16:44:33;21.80;54.50
34640;DHT22;22600;48.186;11.526;2023-02-28T16:47:00;21.80;54.90
34640;DHT22;22600;48.186;11.526;2023-02-28T16:49:26;21.70;54.40
34640;DHT22;22600;48.186;11.526;2023-02-28T16:51:52;21.80;54.60
34640;DHT22;22600;48.186;11.526;2023-02-28T16:54:18;21.70;54.50
34640;DHT22;22600;48.186;11.526;2023-02-28T16:56:46;21.80;55.00
34640;DHT22;22600;48.186;11.526;2023-02-28T16:59:12;21.80;54.60
34640;DHT22;22600;48.186;11.526;2023-02-28T17:01:38;21.80;55.10
34640;DHT22;22600;48.186;11.526;2023-02-28T17:04:04;21.80;55.20
34640;DHT22;22600;48.186;11.526;2023-02-28T17:06:30;21.80;55.20
34640;DHT22;22600;48.186;11.526;2023-02-28T17:08:57;21.80;55.30
34640;DHT22;22600;48.186;11.526;2023-02-28T17:11:24;21.80;54.80
34640;DHT22;22600;48.186;11.526;2023-02-28T17:13:50;21.80;55.30
34640;DHT22;22600;48.186;11.526;2023-02-28T17:16:28;21.80;54.90
34640;DHT22;22600;48.186;11.526;2023-02-28T17:19:00;21.80;55.40
34640;DHT22;22600;48.186;11.526;2023-02-28T17:21:26;21.70;55.40
34640;DHT22;22600;48.186;11.526;2023-02-28T17:23:52;21.80;55.40
34640;DHT22;22600;48.186;11.526;2023-02-28T17:26:19;21.80;55.00
34640;DHT22;22600;48.186;11.526;2023-02-28T17:28:48;21.80;55.40
34640;DHT22;22600;48.186;11.526;2023-02-28T17:31:15;21.80;55.00
34640;DHT22;22600;48.186;11.526;2023-02-28T17:33:40;21.80;55.40
34640;DHT22;22600;48.186;11.526;2023-02-28T17:36:08;21.80;55.30
34640;DHT22;22600;48.186;11.526;2023-02-28T17:38:35;21.80;55.30
34640;DHT22;22600;48.186;11.526;2023-02-28T17:41:00;21.80;54.50
34640;DHT22;22600;48.186;11.526;2023-02-28T17:43:27;21.80;55.00
34640;DHT22;22600;48.186;11.526;2023-02-28T17:45:54;21.80;55.00
34640;DHT22;22600;48.186;11.526;2023-02-28T17:48:21;21.80;55.00
34640;DHT22;22600;48.186;11.526;2023-02-28T17:50:46;21.70;55.00
34640;DHT22;22600;48.186;11.526;2023-02-28T17:53:12;21.80;55.10
34640;DHT22;22600;48.186;11.526;2023-02-28T17:55:37;21.90;55.20
34640;DHT22;22600;48.186;11.526;2023-02-28T17:58:04;21.70;55.10
34640;DHT22;22600;48.186;11.526;2023-02-28T18:00:30;21.70;54.70
34640;DHT22;22600;48.186;11.526;2023-02-28T18:02:58;21.70;55.20
34640;DHT22;22600;48.186;11.526;2023-02-28T18:05:24;21.80;54.90
34640;DHT22;22600;48.186;11.526;2023-02-28T18:07:50;21.80;55.40